createdAt,value
2018-07-13T00:00:12.621Z,101381.63
2018-07-13T00:02:42.169Z,101389.98
2018-07-13T00:05:10.977Z,101395.72
2018-07-13T00:07:39.642Z,101392.66
2018-07-13T00:10:08.541Z,101391.80
2018-07-13T00:12:37.049Z,101392.22
2018-07-13T00:15:09.974Z,101394.81
2018-07-13T00:17:38.508Z,101393.45
2018-07-13T00:20:07.592Z,101392.13
2018-07-13T00:22:36.048Z,101386.81
2018-07-13T00:25:05.327Z,101386.83
2018-07-13T00:27:33.989Z,101389.48
2018-07-13T00:30:02.464Z,101383.73
2018-07-13T00:32:31.577Z,101387.70
2018-07-13T00:35:00.213Z,101373.50
2018-07-13T00:37:28.733Z,101375.67
2018-07-13T00:39:57.952Z,101373.42
2018-07-13T00:42:26.773Z,101368.52
2018-07-13T00:44:55.261Z,101370.69
2018-07-13T00:47:23.997Z,101371.50
2018-07-13T00:49:52.821Z,101375.00
2018-07-13T00:52:21.295Z,101370.14
2018-07-13T00:54:49.829Z,101371.93
2018-07-13T00:57:18.574Z,101370.60
2018-07-13T00:59:47.321Z,101373.27
2018-07-13T01:02:15.921Z,101378.12
2018-07-13T01:04:44.633Z,101377.68
2018-07-13T01:07:13.343Z,101382.52
2018-07-13T01:09:42.182Z,101378.52
2018-07-13T01:12:10.637Z,101378.52
2018-07-13T01:14:39.369Z,101378.05
2018-07-13T01:17:08.233Z,101382.95
2018-07-13T01:19:36.709Z,101380.25
2018-07-13T01:22:05.604Z,101385.03
2018-07-13T01:24:34.290Z,101385.43
2018-07-13T01:27:02.737Z,101390.23
2018-07-13T01:29:31.714Z,101386.64
2018-07-13T01:32:00.485Z,101386.16
2018-07-13T01:34:28.937Z,101387.88
2018-07-13T01:36:57.666Z,101384.32
2018-07-13T01:39:26.125Z,101383.44
2018-07-13T01:41:54.578Z,101384.32
2018-07-13T01:44:23.073Z,101381.66
2018-07-13T01:46:51.541Z,101380.31
2018-07-13T01:49:20.354Z,101385.23
2018-07-13T01:51:48.837Z,101377.76
2018-07-13T01:54:17.573Z,101378.22
2018-07-13T01:56:46.145Z,101371.19
2018-07-13T01:59:14.646Z,101376.09
2018-07-13T02:01:43.109Z,101371.70
2018-07-13T02:04:11.582Z,101369.07
2018-07-13T02:06:40.278Z,101369.96
2018-07-13T02:09:09.686Z,101370.38
2018-07-13T02:11:38.154Z,101371.73
2018-07-13T02:14:07.117Z,101362.92
2018-07-13T02:16:35.849Z,101363.81
2018-07-13T02:19:04.321Z,101366.44
2018-07-13T02:21:32.819Z,101365.48
2018-07-13T02:24:01.822Z,101371.59
2018-07-13T02:26:30.342Z,101370.64
2018-07-13T02:28:58.810Z,101370.14
2018-07-13T02:31:28.563Z,101372.76
2018-07-13T02:33:57.180Z,101371.45
2018-07-13T02:36:25.673Z,101373.21
2018-07-13T02:38:54.817Z,101374.53
2018-07-13T02:41:23.675Z,101369.22
2018-07-13T02:43:52.353Z,101365.74
2018-07-13T02:46:20.909Z,101368.89
2018-07-13T02:48:49.784Z,101365.42
2018-07-13T02:51:18.249Z,101362.81
2018-07-13T02:53:46.678Z,101365.05
2018-07-13T02:56:15.465Z,101369.09
2018-07-13T02:58:44.246Z,101371.77
2018-07-13T03:01:13.009Z,101366.46
2018-07-13T03:03:41.495Z,101368.27
2018-07-13T03:06:10.082Z,101374.02
2018-07-13T03:08:38.755Z,101347.41
2018-07-13T03:11:07.578Z,101371.43
2018-07-13T03:13:36.809Z,101375.47
2018-07-13T03:16:06.038Z,101371.95
2018-07-13T03:18:34.681Z,101372.89
2018-07-13T03:21:03.189Z,101369.39
2018-07-13T03:23:32.104Z,101370.32
2018-07-13T03:26:00.588Z,101373.92
2018-07-13T03:28:29.110Z,101370.86
2018-07-13T03:30:58.650Z,101369.98
2018-07-13T03:33:27.305Z,101368.22
2018-07-13T03:35:55.803Z,101363.38
2018-07-13T03:38:24.888Z,101358.55
2018-07-13T03:40:54.386Z,101360.81
2018-07-13T03:43:22.873Z,101359.48
2018-07-13T03:45:51.861Z,101367.04
2018-07-13T03:48:20.685Z,101363.05
2018-07-13T03:50:49.145Z,101368.36
2018-07-13T03:53:17.858Z,101364.38
2018-07-13T03:55:46.708Z,101392.27
2018-07-13T03:58:15.258Z,101359.98
2018-07-13T04:00:44.004Z,101361.38
2018-07-13T04:03:13.006Z,101359.63
2018-07-13T04:05:41.775Z,101356.09
2018-07-13T04:08:10.581Z,101362.29
2018-07-13T04:10:46.037Z,101362.73
2018-07-13T04:13:14.709Z,101362.30
2018-07-13T04:15:43.796Z,101360.59
2018-07-13T04:18:18.665Z,101353.98
2018-07-13T04:20:47.614Z,101349.13
2018-07-13T04:23:16.514Z,101351.34
2018-07-13T04:25:45.063Z,101349.13
2018-07-13T04:28:14.702Z,101351.36
2018-07-13T04:30:43.932Z,101345.17
2018-07-13T04:33:12.835Z,101353.15
2018-07-13T04:35:41.341Z,101351.83
2018-07-13T04:38:10.758Z,101355.37
2018-07-13T04:40:39.262Z,101350.95
2018-07-13T04:43:08.098Z,101351.84
2018-07-13T04:45:37.442Z,101359.83
2018-07-13T04:48:06.209Z,101362.94
2018-07-13T04:50:35.012Z,101353.64
2018-07-13T04:53:04.420Z,101347.44
2018-07-13T04:55:33.942Z,101350.54
2018-07-13T04:58:02.478Z,101353.20
2018-07-13T05:00:31.466Z,101355.86
2018-07-13T05:03:00.412Z,101365.17
2018-07-13T05:05:28.938Z,101357.63
2018-07-13T05:07:57.863Z,101359.88
2018-07-13T05:10:26.629Z,101355.00
2018-07-13T05:12:55.286Z,101356.31
2018-07-13T05:15:24.133Z,101350.98
2018-07-13T05:17:52.629Z,101353.20
2018-07-13T05:20:21.420Z,101351.41
2018-07-13T05:22:50.508Z,101356.28
2018-07-13T05:25:19.077Z,101353.17
2018-07-13T05:27:47.771Z,101355.37
2018-07-13T05:30:16.917Z,101351.80
2018-07-13T05:32:45.481Z,101352.67
2018-07-13T05:35:14.014Z,101357.08
2018-07-13T05:37:43.256Z,101357.95
2018-07-13T05:40:11.833Z,101353.50
2018-07-13T05:42:40.540Z,101254.76
2018-07-13T05:45:09.495Z,101361.05
2018-07-13T05:47:38.499Z,101362.84
2018-07-13T05:50:07.145Z,101365.92
2018-07-13T05:52:35.949Z,101362.34
2018-07-13T05:55:04.898Z,101362.30
2018-07-13T05:57:33.438Z,101355.16
2018-07-13T06:00:02.309Z,101359.11
2018-07-13T06:02:31.537Z,101354.14
2018-07-13T06:05:00.552Z,101354.11
2018-07-13T06:07:29.701Z,101357.18
2018-07-13T06:09:58.309Z,101352.69
2018-07-13T06:12:27.181Z,101348.20
2018-07-13T06:14:56.076Z,101341.48
2018-07-13T06:17:24.557Z,101344.58
2018-07-13T06:19:53.441Z,101351.14
2018-07-13T06:22:22.025Z,101348.85
2018-07-13T06:24:50.537Z,101346.58
2018-07-13T06:27:19.196Z,101342.51
2018-07-13T06:29:47.806Z,101341.55
2018-07-13T06:32:16.277Z,101343.68
2018-07-13T06:34:45.050Z,101339.16
2018-07-13T06:37:14.746Z,101339.97
2018-07-13T06:39:44.065Z,101338.08
2018-07-13T06:42:13.301Z,101336.65
2018-07-13T06:44:42.097Z,101330.31
2018-07-13T06:47:10.674Z,101326.61
2018-07-13T06:49:39.257Z,101322.86
2018-07-13T06:52:07.893Z,101325.84
2018-07-13T06:54:36.659Z,101319.98
2018-07-13T06:57:05.919Z,101315.36
2018-07-13T06:59:34.773Z,101316.60
2018-07-13T07:02:03.470Z,101312.77
2018-07-13T07:04:34.699Z,101314.84
2018-07-13T07:07:05.947Z,101311.16
2018-07-13T07:09:34.665Z,101315.95
2018-07-13T07:13:13.676Z,101308.60
2018-07-13T07:15:42.465Z,101310.12
2018-07-13T07:18:11.692Z,101306.89
2018-07-13T07:20:40.449Z,101306.64
2018-07-13T07:23:08.950Z,101309.05
2018-07-13T07:25:37.442Z,101301.63
2018-07-13T07:28:05.929Z,101304.60
2018-07-13T07:30:34.467Z,101309.82
2018-07-13T07:33:02.958Z,101303.52
2018-07-13T07:35:31.469Z,101295.88
2018-07-13T07:38:00.137Z,101298.83
2018-07-13T07:40:28.671Z,101292.20
2018-07-13T07:42:57.783Z,101289.50
2018-07-13T07:45:26.597Z,101284.20
2018-07-13T07:47:55.295Z,101287.89
2018-07-13T07:50:24.006Z,101291.83
2018-07-13T07:52:52.878Z,101289.23
2018-07-13T07:55:21.590Z,101280.30
2018-07-13T07:57:50.451Z,101286.95
2018-07-13T08:00:18.945Z,101289.44
2018-07-13T08:02:47.883Z,101284.16
2018-07-13T08:05:17.201Z,101282.87
2018-07-13T08:07:45.654Z,101274.98
2018-07-13T08:10:14.389Z,101283.74
2018-07-13T08:12:44.289Z,101279.47
2018-07-13T08:15:12.751Z,101278.20
2018-07-13T08:17:41.469Z,101277.96
2018-07-13T08:20:10.442Z,101274.37
2018-07-13T08:22:42.027Z,101272.17
2018-07-13T08:25:13.717Z,101280.06
2018-07-13T08:27:44.109Z,101273.05
2018-07-13T08:30:17.665Z,101265.61
2018-07-13T08:32:46.382Z,101265.88
2018-07-13T08:35:14.934Z,101265.23
2018-07-13T08:37:43.705Z,101271.91
2018-07-13T08:40:12.782Z,101271.16
2018-07-13T08:42:42.194Z,101261.48
2018-07-13T08:45:11.509Z,101258.00
2018-07-13T08:47:40.169Z,101261.78
2018-07-13T08:50:09.085Z,101264.52
2018-07-13T08:52:38.219Z,101255.97
2018-07-13T08:55:08.486Z,101258.91
2018-07-13T08:57:37.069Z,101249.12
2018-07-13T09:00:06.115Z,101244.16
2018-07-13T09:02:35.270Z,101244.64
2018-07-13T09:05:03.802Z,101239.30
2018-07-13T09:07:34.533Z,101241.13
2018-07-13T09:10:03.367Z,101016.48
2018-07-13T09:12:31.860Z,101243.67
2018-07-13T09:15:00.647Z,101235.36
2018-07-13T09:17:29.360Z,101237.11
2018-07-13T09:19:58.365Z,101237.22
2018-07-13T09:22:27.363Z,101245.61
2018-07-13T09:24:55.889Z,101240.03
2018-07-13T09:27:24.717Z,101236.09
2018-07-13T09:29:53.601Z,101232.34
2018-07-13T09:32:22.037Z,101223.95
2018-07-13T09:34:50.526Z,101227.70
2018-07-13T09:37:20.322Z,101225.39
2018-07-13T09:39:49.090Z,101228.17
2018-07-13T09:42:17.721Z,101229.93
2018-07-13T09:44:46.921Z,101221.75
2018-07-13T09:47:16.099Z,101220.13
2018-07-13T09:49:44.565Z,101219.73
2018-07-13T09:52:14.819Z,101216.06
2018-07-13T09:54:43.616Z,101215.49
2018-07-13T09:57:13.003Z,101215.30
2018-07-13T09:59:42.419Z,101220.14
2018-07-13T10:02:11.275Z,101209.47
2018-07-13T10:04:39.837Z,101216.42
2018-07-13T10:07:09.596Z,101213.78
2018-07-13T10:09:38.286Z,101209.58
2018-07-13T10:12:07.210Z,101213.19
2018-07-13T10:14:36.159Z,101211.06
2018-07-13T10:17:04.928Z,101217.88
2018-07-13T10:19:33.930Z,101218.75
2018-07-13T10:22:02.713Z,101214.94
2018-07-13T10:24:32.375Z,101215.42
2018-07-13T10:27:01.217Z,101210.44
2018-07-13T10:29:33.146Z,101212.57
2018-07-13T10:32:02.880Z,101209.39
2018-07-13T10:34:32.203Z,101206.05
2018-07-13T10:37:03.190Z,101198.88
2018-07-13T10:39:32.534Z,101206.22
2018-07-13T10:42:01.202Z,101204.16
2018-07-13T10:44:30.036Z,101199.22
2018-07-13T10:46:58.590Z,101204.13
2018-07-13T10:49:27.325Z,101202.95
2018-07-13T10:51:56.792Z,101199.14
2018-07-13T10:54:25.424Z,101199.30
2018-07-13T10:56:53.884Z,101199.33
2018-07-13T10:59:22.945Z,101198.31
2018-07-13T11:01:51.682Z,101203.05
2018-07-13T11:04:20.349Z,101196.22
2018-07-13T11:06:48.849Z,101192.87
2018-07-13T11:09:17.710Z,101187.16
2018-07-13T11:11:46.990Z,101191.69
2018-07-13T11:14:15.730Z,101190.34
2018-07-13T11:16:44.363Z,101188.08
2018-07-13T11:19:13.094Z,101186.03
2018-07-13T11:21:42.955Z,101185.58
2018-07-13T11:24:11.763Z,101184.61
2018-07-13T11:26:40.453Z,101186.15
2018-07-13T11:29:09.231Z,101181.22
2018-07-13T11:31:38.352Z,101180.34
2018-07-13T11:34:07.045Z,101187.62
2018-07-13T11:36:36.197Z,101185.14
2018-07-13T11:39:05.583Z,101177.11
2018-07-13T11:41:34.294Z,101177.84
2018-07-13T11:44:02.986Z,101168.00
2018-07-13T11:46:32.253Z,101168.77
2018-07-13T11:49:01.269Z,101162.31
2018-07-13T11:51:30.179Z,101151.02
2018-07-13T11:53:58.831Z,101163.11
2018-07-13T11:56:27.828Z,101160.61
2018-07-13T11:58:56.536Z,101151.83
2018-07-13T12:01:25.001Z,101146.63
2018-07-13T12:03:53.702Z,101146.56
2018-07-13T12:06:22.670Z,101140.23
2018-07-13T12:08:51.149Z,101140.29
2018-07-13T12:11:19.798Z,101129.67
2018-07-13T12:13:49.049Z,101132.30
2018-07-13T12:16:17.495Z,101133.66
2018-07-13T12:18:46.242Z,101126.99
2018-07-13T12:21:14.998Z,101133.14
2018-07-13T12:23:43.463Z,101134.95
2018-07-13T12:26:12.621Z,101121.88
2018-07-13T12:28:41.685Z,101133.02
2018-07-13T12:31:10.137Z,101127.36
2018-07-13T12:33:38.822Z,101129.80
2018-07-13T12:36:07.717Z,101130.55
2018-07-13T12:38:36.159Z,101121.66
2018-07-13T12:41:05.060Z,101119.20
2018-07-13T12:43:34.689Z,101114.51
2018-07-13T12:46:03.162Z,101107.11
2018-07-13T12:48:31.752Z,101119.41
2018-07-13T12:51:00.445Z,101113.36
2018-07-13T12:53:29.247Z,101112.22
2018-07-13T12:55:57.693Z,101119.91
2018-07-13T12:58:27.362Z,101112.53
2018-07-13T13:00:56.232Z,101112.88
2018-07-13T13:03:24.750Z,101105.64
2018-07-13T13:05:53.575Z,101101.22
2018-07-13T13:08:22.298Z,101105.21
2018-07-13T13:10:51.000Z,101105.45
2018-07-13T13:13:19.869Z,101104.23
2018-07-13T13:15:48.993Z,101108.91
2018-07-13T13:18:17.690Z,101112.16
2018-07-13T13:20:46.646Z,101108.47
2018-07-13T13:23:15.087Z,101094.64
2018-07-13T13:25:45.110Z,101102.19
2018-07-13T13:28:14.434Z,101100.76
2018-07-13T13:30:43.545Z,101092.11
2018-07-13T13:33:11.971Z,101096.61
2018-07-13T13:35:42.072Z,101070.69
2018-07-13T13:38:10.522Z,101095.45
2018-07-13T13:40:39.067Z,101088.02
2018-07-13T13:43:08.091Z,101086.76
2018-07-13T13:45:36.573Z,101090.85
2018-07-13T13:48:05.093Z,101083.16
2018-07-13T13:50:34.153Z,101085.45
2018-07-13T13:53:02.596Z,101092.30
2018-07-13T13:55:31.048Z,101084.75
2018-07-13T13:57:59.888Z,101085.52
2018-07-13T14:00:28.853Z,101088.41
2018-07-13T14:02:57.307Z,101083.36
2018-07-13T14:05:26.322Z,101086.38
2018-07-13T14:07:55.032Z,101024.48
2018-07-13T14:10:23.465Z,101084.97
2018-07-13T14:12:51.966Z,101087.30
2018-07-13T14:15:20.808Z,101088.76
2018-07-13T14:17:49.506Z,101089.16
2018-07-13T14:20:17.995Z,101085.70
2018-07-13T14:22:46.846Z,101086.17
2018-07-13T14:25:15.286Z,101091.30
2018-07-13T14:27:44.117Z,101080.44
2018-07-13T14:30:12.987Z,101091.22
2018-07-13T14:32:42.753Z,101090.17
2018-07-13T14:35:11.705Z,101089.38
2018-07-13T14:37:40.131Z,101083.97
2018-07-13T14:40:08.867Z,101090.14
2018-07-13T14:42:37.769Z,101086.76
2018-07-13T14:45:06.289Z,101084.70
2018-07-13T14:47:34.957Z,101085.38
2018-07-13T14:50:03.797Z,101084.64
2018-07-13T14:52:32.232Z,101087.73
2018-07-13T14:55:00.965Z,101085.97
2018-07-13T14:57:29.946Z,101087.83
2018-07-13T14:59:58.479Z,101085.42
2018-07-13T15:02:27.461Z,101093.75
2018-07-13T15:04:57.140Z,101092.83
2018-07-13T15:07:25.585Z,101090.75
2018-07-13T15:09:54.025Z,101086.03
2018-07-13T15:12:22.939Z,101089.25
2018-07-13T15:14:51.469Z,101091.82
2018-07-13T15:17:19.957Z,101090.05
2018-07-13T15:19:49.238Z,101088.48
2018-07-13T15:22:17.673Z,101091.54
2018-07-13T15:24:46.668Z,101089.81
2018-07-13T15:27:15.724Z,101095.19
2018-07-13T15:29:44.165Z,101093.23
2018-07-13T15:32:12.660Z,101093.49
2018-07-13T15:34:41.693Z,101099.58
2018-07-13T15:37:10.160Z,101099.58
2018-07-13T15:39:38.598Z,101106.59
2018-07-13T15:42:07.919Z,101100.96
2018-07-13T15:44:36.754Z,101101.44
2018-07-13T15:47:05.658Z,101097.17
2018-07-13T15:49:34.709Z,101099.04
2018-07-13T15:52:03.540Z,101098.77
2018-07-13T15:54:32.009Z,101097.10
2018-07-13T15:57:01.086Z,101101.41
2018-07-13T15:59:29.832Z,101097.58
2018-07-13T16:01:58.549Z,101098.28
2018-07-13T16:04:27.362Z,101094.47
2018-07-13T16:06:55.826Z,101096.11
2018-07-13T16:09:24.601Z,101097.17
2018-07-13T16:11:53.504Z,101095.58
2018-07-13T16:14:21.956Z,101099.34
2018-07-13T16:16:50.973Z,101096.58
2018-07-13T16:19:19.557Z,101091.28
2018-07-13T16:21:48.212Z,101095.11
2018-07-13T16:24:16.670Z,101094.11
2018-07-13T16:26:45.594Z,101090.41
2018-07-13T16:29:14.026Z,101089.06
2018-07-13T16:31:42.731Z,101082.84
2018-07-13T16:34:11.653Z,101089.53
2018-07-13T16:36:40.622Z,101091.97
2018-07-13T16:39:09.157Z,101097.13
2018-07-13T16:41:38.337Z,101090.05
2018-07-13T16:44:07.131Z,101090.33
2018-07-13T16:46:35.610Z,101089.50
2018-07-13T16:49:04.414Z,101090.52
2018-07-13T16:51:32.870Z,101092.18
2018-07-13T16:54:01.309Z,101093.12
2018-07-13T16:56:30.228Z,101084.94
2018-07-13T16:59:00.039Z,101090.11
2018-07-13T17:01:29.175Z,101090.80
2018-07-13T17:03:58.145Z,101086.42
2018-07-13T17:06:26.959Z,101091.41
2018-07-13T17:08:56.076Z,101089.22
2018-07-13T17:11:24.809Z,101089.74
2018-07-13T17:13:53.229Z,101093.30
2018-07-13T17:16:21.865Z,101095.22
2018-07-13T17:18:50.861Z,101082.58
2018-07-13T17:21:19.318Z,101089.56
2018-07-13T17:23:47.907Z,101088.61
2018-07-13T17:26:16.968Z,101084.09
2018-07-13T17:28:45.382Z,101080.77
2018-07-13T17:31:13.857Z,101081.33
2018-07-13T17:33:43.818Z,101074.69
2018-07-13T17:36:12.599Z,101074.83
2018-07-13T17:38:41.032Z,101082.21
2018-07-13T17:41:09.958Z,101086.78
2018-07-13T17:43:38.487Z,101088.37
2018-07-13T17:46:07.158Z,101090.27
2018-07-13T17:48:36.042Z,101090.97
2018-07-13T17:51:04.488Z,101087.89
2018-07-13T17:53:32.977Z,101089.14
2018-07-13T17:56:01.973Z,101088.37
2018-07-13T17:58:30.413Z,101091.56
2018-07-13T18:00:58.994Z,101092.77
2018-07-13T18:03:28.197Z,101092.72
2018-07-13T18:05:57.121Z,101097.94
2018-07-13T18:08:25.926Z,101089.30
2018-07-13T18:10:54.695Z,101102.53
2018-07-13T18:13:23.529Z,101103.81
2018-07-13T18:15:51.988Z,101109.84
2018-07-13T18:18:21.058Z,101114.45
2018-07-13T18:20:49.829Z,101120.12
2018-07-13T18:23:18.852Z,101121.28
2018-07-13T18:25:47.713Z,101128.65
2018-07-13T18:28:16.333Z,101124.20
2018-07-13T18:30:45.205Z,101131.50
2018-07-13T18:33:14.095Z,101135.92
2018-07-13T18:35:43.438Z,101129.28
2018-07-13T18:38:12.490Z,101136.63
2018-07-13T18:40:41.294Z,101137.20
2018-07-13T18:43:10.086Z,101139.28
2018-07-13T18:45:38.857Z,101138.45
2018-07-13T18:48:07.753Z,101142.22
2018-07-13T18:50:36.206Z,101146.98
2018-07-13T18:53:05.388Z,101147.23
2018-07-13T18:55:34.477Z,101148.00
2018-07-13T18:58:02.917Z,101145.75
2018-07-13T19:00:31.601Z,101147.90
2018-07-13T19:03:00.477Z,101148.68
2018-07-13T19:05:28.913Z,101152.11
2018-07-13T19:07:57.949Z,101148.81
2018-07-13T19:10:27.057Z,101148.21
2018-07-13T19:12:55.501Z,101149.28
2018-07-13T19:15:23.961Z,101156.22
2018-07-13T19:17:52.742Z,101158.11
2018-07-13T19:20:21.205Z,101154.67
2018-07-13T19:22:49.716Z,101151.75
2018-07-13T19:25:21.297Z,101162.23
2018-07-13T19:27:50.172Z,101161.06
2018-07-13T19:30:18.917Z,101159.47
2018-07-13T19:32:47.380Z,101151.63
2018-07-13T19:35:15.950Z,101160.38
2018-07-13T19:37:44.653Z,101162.84
2018-07-13T19:40:13.317Z,101159.41
2018-07-13T19:42:41.851Z,101162.16
2018-07-13T19:45:10.716Z,101163.23
2018-07-13T19:47:39.337Z,101164.31
2018-07-13T19:50:07.813Z,101173.46
2018-07-13T19:52:36.887Z,101170.93
2018-07-13T19:55:05.593Z,101167.59
2018-07-13T19:57:34.057Z,101169.11
2018-07-13T20:00:02.840Z,101167.91
2018-07-13T20:02:31.653Z,101168.91
2018-07-13T20:05:00.131Z,101173.55
2018-07-13T20:07:28.874Z,101164.81
2018-07-13T20:09:57.693Z,101164.91
2018-07-13T20:12:26.341Z,101168.19
2018-07-13T20:14:55.957Z,101166.45
2018-07-13T20:17:24.991Z,101173.19
2018-07-13T20:19:53.542Z,101159.80
2018-07-13T20:22:22.006Z,101165.18
2018-07-13T20:24:50.841Z,101164.27
2018-07-13T20:27:19.313Z,101142.78
2018-07-13T20:29:48.069Z,101164.44
2018-07-13T20:32:17.212Z,101161.39
2018-07-13T20:34:45.917Z,101167.27
2018-07-13T20:37:14.642Z,101163.81
2018-07-13T20:39:43.812Z,101170.30
2018-07-13T20:42:12.354Z,101162.87
2018-07-13T20:44:41.523Z,101170.14
2018-07-13T20:47:10.004Z,101169.84
2018-07-13T20:49:38.642Z,101173.03
2018-07-13T20:52:07.363Z,101170.42
2018-07-13T20:54:36.184Z,101167.80
2018-07-13T20:57:04.685Z,101173.61
2018-07-13T20:59:33.389Z,101175.94
2018-07-13T21:02:01.937Z,101181.32
2018-07-13T21:04:30.394Z,101173.84
2018-07-13T21:06:59.161Z,101175.23
2018-07-13T21:09:27.817Z,101176.59
2018-07-13T21:11:56.307Z,101180.66
2018-07-13T21:14:25.071Z,101175.31
2018-07-13T21:16:53.518Z,101182.48
2018-07-13T21:19:21.989Z,101182.59
2018-07-13T21:21:50.976Z,101183.55
2018-07-13T21:24:20.205Z,101184.52
2018-07-13T21:26:49.237Z,101181.89
2018-07-13T21:29:17.721Z,101186.87
2018-07-13T21:31:46.500Z,101182.92
2018-07-13T21:34:15.547Z,101184.31
2018-07-13T21:36:44.057Z,101187.95
2018-07-13T21:39:13.545Z,101190.69
2018-07-13T21:41:42.575Z,101187.64
2018-07-13T21:44:11.551Z,101189.48
2018-07-13T21:46:40.425Z,101193.11
2018-07-13T21:49:08.913Z,101189.14
2018-07-13T21:51:37.679Z,101189.72
2018-07-13T21:54:06.476Z,101196.40
2018-07-13T21:56:34.946Z,101196.83
2018-07-13T21:59:03.825Z,101199.50
2018-07-13T22:01:32.531Z,101200.41
2018-07-13T22:04:01.034Z,101199.56
2018-07-13T22:06:30.281Z,101198.28
2018-07-13T22:08:59.037Z,101195.70
2018-07-13T22:11:27.519Z,101189.98
2018-07-13T22:13:56.473Z,101190.05
2018-07-13T22:16:25.830Z,101190.98
2018-07-13T22:18:54.351Z,101188.33
2018-07-13T22:21:22.877Z,101192.36
2018-07-13T22:23:51.964Z,101184.82
2018-07-13T22:26:20.440Z,101164.56
2018-07-13T22:28:48.984Z,101192.89
2018-07-13T22:31:17.681Z,101189.38
2018-07-13T22:33:46.834Z,101190.77
2018-07-13T22:36:16.134Z,101191.23
2018-07-13T22:38:44.961Z,101188.67
2018-07-13T22:41:14.353Z,101187.98
2018-07-13T22:43:42.832Z,101186.42
2018-07-13T22:46:11.409Z,101183.03
2018-07-13T22:48:40.163Z,101180.41
2018-07-13T22:51:08.715Z,101176.46
2018-07-13T22:53:37.213Z,101176.06
2018-07-13T22:56:06.165Z,101179.66
2018-07-13T22:58:34.637Z,101173.08
2018-07-13T23:01:03.739Z,101174.98
2018-07-13T23:03:32.859Z,101173.30
2018-07-13T23:06:02.641Z,101170.30
2018-07-13T23:08:31.337Z,101174.78
2018-07-13T23:11:00.297Z,101176.13
2018-07-13T23:13:29.210Z,101172.09
2018-07-13T23:15:58.769Z,101176.53
2018-07-13T23:18:27.583Z,101179.98
2018-07-13T23:20:56.456Z,101177.73
2018-07-13T23:23:25.070Z,101176.82
2018-07-13T23:25:53.577Z,101182.20
2018-07-13T23:28:22.545Z,101186.36
2018-07-13T23:30:51.199Z,101171.81
2018-07-13T23:33:19.826Z,101169.64
2018-07-13T23:35:49.211Z,101182.53
2018-07-13T23:38:17.856Z,101178.12
2018-07-13T23:40:46.336Z,101181.69
2018-07-13T23:43:14.857Z,101181.27
2018-07-13T23:45:44.069Z,101178.63
2018-07-13T23:48:12.593Z,101168.83
2018-07-13T23:50:41.085Z,101171.48
2018-07-13T23:53:09.637Z,101178.59
2018-07-13T23:55:38.368Z,101174.17
2018-07-13T23:58:07.106Z,101171.55
